Castro Valley, CA (94546)

1:46 PM PDT on September 01, 2015 (GMT -0700)
Castro Valley | | Change Station
CLOSE
Current Station
Personal Weather Station
Location: Castro Valley, CA
Elevation: 367 ft
Nearby Weather Stations

Elev 367 ft 37.72 °N, 122.08 °W | Updated 1 minute ago

Clear
Clear
83.7 °F
Feels Like 81 °F
N
6.3
Wind Variable Wind from WNW
Gusts 6.5 mph

Today
High -- | Low -- °F
--% Chance of Precip.
Yesterday
High -- | Low -- °F
Precip. -- in
6:38 AM 7:37 PM
Waning Gibbous, 86% visible
Pressure 29.92 in
Visibility 9.0 miles
Clouds Clear
Heat Index 81 °F
Dew Point 24 °F
Humidity 11%
Rainfall 0.00 in
Snow Depth Not available.
UV 10 out of 12
Pollen 6.90 out of 12
Air Quality Not available.
Flu Activity Not available.
METAR KHWD 011954Z 27006KT 9SM CLR 23/13 A2989 RMK AO2 SLP130 T02280133
Pressure 29.92 in
Visibility 9.0 miles
Clouds Clear
Heat Index 81 °F
Dew Point 24 °F
Humidity 11%
Rainfall 0.00 in
Snow Depth Not available.
UV 10 out of 12
Pollen 6.90 out of 12
Air Quality Not available.
Flu Activity Not available.
METAR KHWD 011954Z 27006KT 9SM CLR 23/13 A2989 RMK AO2 SLP130 T02280133

10-Day Weather Forecast

×

Almanac

Astronomy

Sep. 01, 2015 Rise Set
Actual Time
Civil Twilight
Nautical Twilight
Astronomical Twilight
Moon
Length of Visible Light
Length of Day
Tomorrow will be .
, % of the Moon is Illuminated

Today's Extremes

State Highs State Lows

Community

WunderPhotos

Upload Photos

1,851,608 photos uploaded!

WunderBlogs® & News

Nearby

Air Quality

  Air Quality AQ Index Pollutant
Not available.

Snow Depth

Station Depth Elevation

Earthquake Activity

City Distance Mag. Time & Date
Minimum magnitude displayed is 2.5.

Coastal Water Temperatures

Place Temperature

Stations

Nearby Weather Stations

Station Location Temp. Windchill Dew Point Humidity Wind Precip. Elev Updated Type